sensor_id;sensor_type;location;lat;lon;timestamp;P1;durP1;ratioP1;P2;durP2;ratioP2
68995;SDS011;56056;48.990;12.146;2023-04-24T00:00:55;1152.13;;;999.90;;
68995;SDS011;56056;48.990;12.146;2023-04-24T00:03:26;1125.18;;;999.90;;
68995;SDS011;56056;48.990;12.146;2023-04-24T00:05:54;1118.20;;;999.90;;
68995;SDS011;56056;48.990;12.146;2023-04-24T00:08:19;1139.07;;;999.90;;
68995;SDS011;56056;48.990;12.146;2023-04-24T00:10:45;1128.50;;;999.90;;
68995;SDS011;56056;48.990;12.146;2023-04-24T00:13:11;1106.72;;;999.90;;
68995;SDS011;56056;48.990;12.146;2023-04-24T00:15:37;1164.60;;;999.90;;
68995;SDS011;56056;48.990;12.146;2023-04-24T00:18:02;1155.97;;;999.90;;
68995;SDS011;56056;48.990;12.146;2023-04-24T00:20:28;1185.50;;;999.90;;
68995;SDS011;56056;48.990;12.146;2023-04-24T00:22:56;1192.35;;;999.90;;
68995;SDS011;56056;48.990;12.146;2023-04-24T00:25:21;1159.35;;;999.90;;
68995;SDS011;56056;48.990;12.146;2023-04-24T00:27:47;1218.63;;;999.90;;
68995;SDS011;56056;48.990;12.146;2023-04-24T00:30:12;1198.60;;;999.90;;
68995;SDS011;56056;48.990;12.146;2023-04-24T00:32:38;1187.25;;;999.90;;
68995;SDS011;56056;48.990;12.146;2023-04-24T00:35:04;1232.22;;;999.90;;
68995;SDS011;56056;48.990;12.146;2023-04-24T00:37:31;1175.45;;;999.90;;
68995;SDS011;56056;48.990;12.146;2023-04-24T00:39:58;1202.78;;;999.90;;
68995;SDS011;56056;48.990;12.146;2023-04-24T00:42:23;1204.50;;;999.90;;
68995;SDS011;56056;48.990;12.146;2023-04-24T00:44:50;1198.90;;;999.90;;
68995;SDS011;56056;48.990;12.146;2023-04-24T00:47:16;1188.78;;;999.90;;
68995;SDS011;56056;48.990;12.146;2023-04-24T00:49:42;1179.97;;;999.90;;
68995;SDS011;56056;48.990;12.146;2023-04-24T00:52:07;1179.68;;;999.90;;
68995;SDS011;56056;48.990;12.146;2023-04-24T00:54:33;1196.68;;;999.90;;
68995;SDS011;56056;48.990;12.146;2023-04-24T00:57:01;1214.15;;;999.90;;
68995;SDS011;56056;48.990;12.146;2023-04-24T00:59:27;1171.28;;;999.90;;
68995;SDS011;56056;48.990;12.146;2023-04-24T01:01:53;1203.65;;;999.90;;
68995;SDS011;56056;48.990;12.146;2023-04-24T01:04:19;1179.85;;;999.90;;
68995;SDS011;56056;48.990;12.146;2023-04-24T01:06:45;1181.63;;;999.90;;
68995;SDS011;56056;48.990;12.146;2023-04-24T01:09:11;1239.43;;;999.90;;
68995;SDS011;56056;48.990;12.146;2023-04-24T01:11:37;1236.22;;;999.90;;
68995;SDS011;56056;48.990;12.146;2023-04-24T01:14:04;1177.78;;;999.90;;
68995;SDS011;56056;48.990;12.146;2023-04-24T01:16:30;1199.15;;;999.90;;
68995;SDS011;56056;48.990;12.146;2023-04-24T01:18:55;1214.18;;;999.90;;
68995;SDS011;56056;48.990;12.146;2023-04-24T01:21:21;1257.45;;;999.90;;
68995;SDS011;56056;48.990;12.146;2023-04-24T01:23:50;1234.10;;;999.90;;
68995;SDS011;56056;48.990;12.146;2023-04-24T01:26:16;1264.55;;;999.90;;
68995;SDS011;56056;48.990;12.146;2023-04-24T01:28:42;1256.10;;;999.90;;
68995;SDS011;56056;48.990;12.146;2023-04-24T01:31:08;1205.53;;;999.90;;
68995;SDS011;56056;48.990;12.146;2023-04-24T01:33:33;1221.57;;;999.90;;
68995;SDS011;56056;48.990;12.146;2023-04-24T01:35:59;1200.53;;;999.90;;
68995;SDS011;56056;48.990;12.146;2023-04-24T01:38:25;1249.57;;;999.90;;
68995;SDS011;56056;48.990;12.146;2023-04-24T01:40:53;1243.88;;;999.90;;
68995;SDS011;56056;48.990;12.146;2023-04-24T01:43:18;1188.90;;;999.90;;
68995;SDS011;56056;48.990;12.146;2023-04-24T01:45:44;1192.75;;;999.90;;
68995;SDS011;56056;48.990;12.146;2023-04-24T01:48:11;1222.22;;;999.90;;
68995;SDS011;56056;48.990;12.146;2023-04-24T01:50:37;1236.80;;;999.90;;
68995;SDS011;56056;48.990;12.146;2023-04-24T01:53:03;1219.00;;;999.90;;
68995;SDS011;56056;48.990;12.146;2023-04-24T01:55:28;1192.28;;;999.90;;
68995;SDS011;56056;48.990;12.146;2023-04-24T01:57:55;1180.05;;;999.90;;
68995;SDS011;56056;48.990;12.146;2023-04-24T02:00:21;1195.18;;;999.90;;
68995;SDS011;56056;48.990;12.146;2023-04-24T02:02:47;1186.97;;;999.90;;
68995;SDS011;56056;48.990;12.146;2023-04-24T02:05:13;1206.15;;;999.90;;
68995;SDS011;56056;48.990;12.146;2023-04-24T02:07:39;1217.32;;;999.90;;
68995;SDS011;56056;48.990;12.146;2023-04-24T02:10:05;1221.47;;;999.90;;
68995;SDS011;56056;48.990;12.146;2023-04-24T02:12:31;1234.30;;;999.90;;
68995;SDS011;56056;48.990;12.146;2023-04-24T02:14:58;1198.30;;;999.90;;
68995;SDS011;56056;48.990;12.146;2023-04-24T02:17:24;1154.15;;;999.90;;
68995;SDS011;56056;48.990;12.146;2023-04-24T02:19:49;1236.43;;;999.90;;
68995;SDS011;56056;48.990;12.146;2023-04-24T02:22:15;1231.32;;;999.90;;
68995;SDS011;56056;48.990;12.146;2023-04-24T02:24:41;1203.70;;;999.90;;
68995;SDS011;56056;48.990;12.146;2023-04-24T02:27:06;1202.28;;;999.90;;
68995;SDS011;56056;48.990;12.146;2023-04-24T02:29:32;1217.43;;;999.90;;
68995;SDS011;56056;48.990;12.146;2023-04-24T02:31:59;1169.80;;;999.90;;
68995;SDS011;56056;48.990;12.146;2023-04-24T02:34:25;1179.15;;;999.90;;
68995;SDS011;56056;48.990;12.146;2023-04-24T02:36:50;1249.68;;;999.90;;
68995;SDS011;56056;48.990;12.146;2023-04-24T02:39:18;1237.80;;;999.90;;
68995;SDS011;56056;48.990;12.146;2023-04-24T02:41:44;1195.30;;;999.90;;
68995;SDS011;56056;48.990;12.146;2023-04-24T02:44:10;1195.07;;;999.90;;
68995;SDS011;56056;48.990;12.146;2023-04-24T02:46:35;1226.07;;;999.90;;
68995;SDS011;56056;48.990;12.146;2023-04-24T02:49:02;1224.28;;;999.90;;
68995;SDS011;56056;48.990;12.146;2023-04-24T02:51:28;1190.68;;;999.90;;
68995;SDS011;56056;48.990;12.146;2023-04-24T02:53:53;1203.28;;;999.90;;
68995;SDS011;56056;48.990;12.146;2023-04-24T02:56:19;1210.40;;;999.90;;
68995;SDS011;56056;48.990;12.146;2023-04-24T02:58:45;1219.93;;;999.90;;
68995;SDS011;56056;48.990;12.146;2023-04-24T03:01:11;1259.15;;;999.90;;
68995;SDS011;56056;48.990;12.146;2023-04-24T03:03:36;1215.97;;;999.90;;
68995;SDS011;56056;48.990;12.146;2023-04-24T03:06:03;1221.65;;;999.90;;
68995;SDS011;56056;48.990;12.146;2023-04-24T03:08:30;1225.43;;;999.90;;
68995;SDS011;56056;48.990;12.146;2023-04-24T03:10:56;1217.35;;;999.90;;
68995;SDS011;56056;48.990;12.146;2023-04-24T03:13:22;1235.45;;;999.90;;
68995;SDS011;56056;48.990;12.146;2023-04-24T03:15:47;1205.10;;;999.90;;
68995;SDS011;56056;48.990;12.146;2023-04-24T03:18:13;1204.57;;;999.90;;
68995;SDS011;56056;48.990;12.146;2023-04-24T03:20:38;1172.47;;;999.90;;
68995;SDS011;56056;48.990;12.146;2023-04-24T03:23:06;1244.30;;;999.90;;
68995;SDS011;56056;48.990;12.146;2023-04-24T03:25:31;1229.68;;;999.90;;
68995;SDS011;56056;48.990;12.146;2023-04-24T03:27:57;1222.35;;;999.90;;
68995;SDS011;56056;48.990;12.146;2023-04-24T03:30:22;1244.85;;;999.90;;
68995;SDS011;56056;48.990;12.146;2023-04-24T03:32:48;1084.28;;;985.55;;
68995;SDS011;56056;48.990;12.146;2023-04-24T03:35:14;1182.80;;;999.90;;
68995;SDS011;56056;48.990;12.146;2023-04-24T03:37:39;1191.43;;;999.90;;
68995;SDS011;56056;48.990;12.146;2023-04-24T03:40:07;1172.40;;;999.90;;
68995;SDS011;56056;48.990;12.146;2023-04-24T03:42:34;1155.53;;;999.90;;
68995;SDS011;56056;48.990;12.146;2023-04-24T03:44:59;1253.95;;;999.90;;
68995;SDS011;56056;48.990;12.146;2023-04-24T03:47:25;1193.72;;;999.90;;
68995;SDS011;56056;48.990;12.146;2023-04-24T03:49:51;1179.97;;;999.90;;
68995;SDS011;56056;48.990;12.146;2023-04-24T03:52:17;1147.45;;;999.90;;
68995;SDS011;56056;48.990;12.146;2023-04-24T03:54:42;1196.30;;;999.90;;
68995;SDS011;56056;48.990;12.146;2023-04-24T03:57:09;1133.30;;;999.90;;
68995;SDS011;56056;48.990;12.146;2023-04-24T03:59:35;1125.07;;;999.90;;
68995;SDS011;56056;48.990;12.146;2023-04-24T04:02:01;1153.35;;;999.90;;
68995;SDS011;56056;48.990;12.146;2023-04-24T04:04:26;1150.78;;;999.90;;
68995;SDS011;56056;48.990;12.146;2023-04-24T04:06:52;1114.75;;;997.70;;
68995;SDS011;56056;48.990;12.146;2023-04-24T04:09:18;1154.95;;;999.90;;
68995;SDS011;56056;48.990;12.146;2023-04-24T04:11:44;1215.18;;;999.90;;
68995;SDS011;56056;48.990;12.146;2023-04-24T04:14:10;1176.20;;;999.90;;
68995;SDS011;56056;48.990;12.146;2023-04-24T04:16:36;1143.57;;;999.90;;
68995;SDS011;56056;48.990;12.146;2023-04-24T04:19:02;1134.72;;;999.70;;
68995;SDS011;56056;48.990;12.146;2023-04-24T04:21:28;1170.38;;;999.90;;
68995;SDS011;56056;48.990;12.146;2023-04-24T04:23:54;1179.28;;;999.90;;
68995;SDS011;56056;48.990;12.146;2023-04-24T04:26:19;1042.72;;;947.00;;
68995;SDS011;56056;48.990;12.146;2023-04-24T04:28:46;1133.47;;;999.22;;
68995;SDS011;56056;48.990;12.146;2023-04-24T04:31:14;1107.68;;;992.78;;
68995;SDS011;56056;48.990;12.146;2023-04-24T04:33:39;1111.18;;;995.78;;
68995;SDS011;56056;48.990;12.146;2023-04-24T04:36:05;1188.72;;;999.90;;
68995;SDS011;56056;48.990;12.146;2023-04-24T04:38:31;1089.28;;;984.03;;
68995;SDS011;56056;48.990;12.146;2023-04-24T04:40:56;1141.50;;;999.90;;
68995;SDS011;56056;48.990;12.146;2023-04-24T04:43:23;1126.85;;;996.38;;
68995;SDS011;56056;48.990;12.146;2023-04-24T04:45:49;1195.15;;;999.90;;
68995;SDS011;56056;48.990;12.146;2023-04-24T04:48:17;1186.88;;;999.90;;
68995;SDS011;56056;48.990;12.146;2023-04-24T04:50:43;1109.72;;;992.13;;
68995;SDS011;56056;48.990;12.146;2023-04-24T04:53:09;1158.25;;;999.90;;
68995;SDS011;56056;48.990;12.146;2023-04-24T04:55:35;1137.13;;;999.90;;
68995;SDS011;56056;48.990;12.146;2023-04-24T04:58:01;1159.32;;;999.90;;
68995;SDS011;56056;48.990;12.146;2023-04-24T05:00:26;1193.97;;;999.90;;
68995;SDS011;56056;48.990;12.146;2023-04-24T05:02:54;1118.25;;;996.78;;
68995;SDS011;56056;48.990;12.146;2023-04-24T05:05:20;1151.22;;;999.90;;
68995;SDS011;56056;48.990;12.146;2023-04-24T05:07:46;1100.45;;;987.60;;
68995;SDS011;56056;48.990;12.146;2023-04-24T05:10:12;1083.00;;;974.28;;
68995;SDS011;56056;48.990;12.146;2023-04-24T05:12:37;1379.10;;;999.90;;
68995;SDS011;56056;48.990;12.146;2023-04-24T05:15:03;1151.07;;;999.90;;
68995;SDS011;56056;48.990;12.146;2023-04-24T05:17:29;1168.88;;;999.90;;
68995;SDS011;56056;48.990;12.146;2023-04-24T05:19:55;1168.75;;;999.90;;
68995;SDS011;56056;48.990;12.146;2023-04-24T05:22:22;1180.13;;;999.90;;
68995;SDS011;56056;48.990;12.146;2023-04-24T05:24:48;1158.05;;;999.90;;
68995;SDS011;56056;48.990;12.146;2023-04-24T05:27:14;1298.55;;;999.90;;
68995;SDS011;56056;48.990;12.146;2023-04-24T05:29:40;1234.35;;;999.90;;
68995;SDS011;56056;48.990;12.146;2023-04-24T05:32:05;1331.22;;;999.90;;
68995;SDS011;56056;48.990;12.146;2023-04-24T05:34:31;1348.88;;;999.90;;
68995;SDS011;56056;48.990;12.146;2023-04-24T05:36:57;1096.75;;;986.58;;
68995;SDS011;56056;48.990;12.146;2023-04-24T05:39:24;1283.57;;;999.90;;
68995;SDS011;56056;48.990;12.146;2023-04-24T05:41:50;1193.15;;;998.75;;
68995;SDS011;56056;48.990;12.146;2023-04-24T05:44:15;1330.82;;;999.90;;
68995;SDS011;56056;48.990;12.146;2023-04-24T05:46:41;1279.57;;;999.90;;
68995;SDS011;56056;48.990;12.146;2023-04-24T05:49:07;1097.57;;;983.25;;
68995;SDS011;56056;48.990;12.146;2023-04-24T05:51:32;1114.50;;;986.25;;
68995;SDS011;56056;48.990;12.146;2023-04-24T05:53:58;1188.05;;;999.90;;
68995;SDS011;56056;48.990;12.146;2023-04-24T05:56:25;1349.75;;;999.90;;
68995;SDS011;56056;48.990;12.146;2023-04-24T05:58:50;1405.07;;;999.90;;
68995;SDS011;56056;48.990;12.146;2023-04-24T06:01:16;1226.90;;;999.90;;
68995;SDS011;56056;48.990;12.146;2023-04-24T06:03:43;1232.68;;;999.90;;
68995;SDS011;56056;48.990;12.146;2023-04-24T06:06:08;1515.97;;;999.90;;
68995;SDS011;56056;48.990;12.146;2023-04-24T06:08:34;1251.45;;;999.90;;
68995;SDS011;56056;48.990;12.146;2023-04-24T06:11:00;1353.90;;;999.90;;
68995;SDS011;56056;48.990;12.146;2023-04-24T06:13:27;1350.63;;;999.90;;
68995;SDS011;56056;48.990;12.146;2023-04-24T06:15:53;1202.43;;;999.90;;
68995;SDS011;56056;48.990;12.146;2023-04-24T06:18:19;1187.57;;;999.90;;
68995;SDS011;56056;48.990;12.146;2023-04-24T06:20:44;1189.47;;;998.45;;
68995;SDS011;56056;48.990;12.146;2023-04-24T06:23:10;1285.57;;;999.90;;
68995;SDS011;56056;48.990;12.146;2023-04-24T06:25:36;1352.30;;;999.90;;
68995;SDS011;56056;48.990;12.146;2023-04-24T06:28:02;1512.70;;;999.90;;
68995;SDS011;56056;48.990;12.146;2023-04-24T06:30:30;1277.18;;;999.90;;
68995;SDS011;56056;48.990;12.146;2023-04-24T06:32:56;1215.40;;;999.90;;
68995;SDS011;56056;48.990;12.146;2023-04-24T06:35:21;1295.53;;;999.90;;
68995;SDS011;56056;48.990;12.146;2023-04-24T06:37:47;1166.75;;;999.90;;
68995;SDS011;56056;48.990;12.146;2023-04-24T06:40:13;1124.65;;;991.97;;
68995;SDS011;56056;48.990;12.146;2023-04-24T06:42:39;1181.28;;;999.90;;
68995;SDS011;56056;48.990;12.146;2023-04-24T06:45:05;1676.57;;;999.90;;
68995;SDS011;56056;48.990;12.146;2023-04-24T06:47:32;1176.30;;;999.90;;
68995;SDS011;56056;48.990;12.146;2023-04-24T06:49:58;1207.25;;;999.90;;
68995;SDS011;56056;48.990;12.146;2023-04-24T06:52:23;1174.20;;;999.90;;
68995;SDS011;56056;48.990;12.146;2023-04-24T06:54:49;1231.25;;;999.90;;
68995;SDS011;56056;48.990;12.146;2023-04-24T06:57:15;1516.70;;;999.90;;
68995;SDS011;56056;48.990;12.146;2023-04-24T06:59:43;1364.80;;;999.90;;
68995;SDS011;56056;48.990;12.146;2023-04-24T07:02:09;1378.30;;;999.90;;
68995;SDS011;56056;48.990;12.146;2023-04-24T07:04:36;1263.05;;;999.90;;
68995;SDS011;56056;48.990;12.146;2023-04-24T07:07:02;1699.55;;;999.90;;
68995;SDS011;56056;48.990;12.146;2023-04-24T07:09:28;1521.03;;;999.90;;
68995;SDS011;56056;48.990;12.146;2023-04-24T07:11:53;1698.32;;;999.90;;
68995;SDS011;56056;48.990;12.146;2023-04-24T07:14:22;1868.95;;;999.90;;
68995;SDS011;56056;48.990;12.146;2023-04-24T07:16:48;1807.50;;;999.90;;
68995;SDS011;56056;48.990;12.146;2023-04-24T07:19:13;1655.22;;;999.90;;
68995;SDS011;56056;48.990;12.146;2023-04-24T07:21:40;1845.60;;;999.90;;
68995;SDS011;56056;48.990;12.146;2023-04-24T07:24:06;1871.85;;;999.90;;
68995;SDS011;56056;48.990;12.146;2023-04-24T07:26:36;1823.03;;;999.90;;
68995;SDS011;56056;48.990;12.146;2023-04-24T07:29:02;1865.18;;;999.90;;
68995;SDS011;56056;48.990;12.146;2023-04-24T07:31:27;1978.88;;;999.90;;
68995;SDS011;56056;48.990;12.146;2023-04-24T07:33:53;1999.90;;;999.90;;
68995;SDS011;56056;48.990;12.146;2023-04-24T07:36:19;1999.90;;;999.90;;
68995;SDS011;56056;48.990;12.146;2023-04-24T07:38:46;1999.90;;;999.90;;
68995;SDS011;56056;48.990;12.146;2023-04-24T07:41:12;1999.90;;;999.90;;
68995;SDS011;56056;48.990;12.146;2023-04-24T07:43:37;1999.90;;;999.90;;
68995;SDS011;56056;48.990;12.146;2023-04-24T07:46:03;1999.90;;;999.90;;
68995;SDS011;56056;48.990;12.146;2023-04-24T07:48:29;1999.90;;;999.90;;
68995;SDS011;56056;48.990;12.146;2023-04-24T07:50:54;1999.90;;;999.90;;
68995;SDS011;56056;48.990;12.146;2023-04-24T07:53:20;1999.90;;;999.90;;
68995;SDS011;56056;48.990;12.146;2023-04-24T07:55:47;1995.25;;;999.90;;
68995;SDS011;56056;48.990;12.146;2023-04-24T07:58:13;1813.53;;;999.90;;
68995;SDS011;56056;48.990;12.146;2023-04-24T08:00:38;1999.90;;;999.90;;
68995;SDS011;56056;48.990;12.146;2023-04-24T08:03:04;1999.90;;;999.90;;
68995;SDS011;56056;48.990;12.146;2023-04-24T08:05:30;1999.90;;;999.90;;
68995;SDS011;56056;48.990;12.146;2023-04-24T08:07:55;1999.90;;;999.90;;
68995;SDS011;56056;48.990;12.146;2023-04-24T08:10:22;1968.45;;;999.90;;
68995;SDS011;56056;48.990;12.146;2023-04-24T08:12:49;1825.22;;;999.90;;
68995;SDS011;56056;48.990;12.146;2023-04-24T08:15:15;1862.43;;;999.90;;
68995;SDS011;56056;48.990;12.146;2023-04-24T08:17:41;1884.22;;;999.90;;
68995;SDS011;56056;48.990;12.146;2023-04-24T08:20:07;1930.32;;;999.90;;
68995;SDS011;56056;48.990;12.146;2023-04-24T08:22:39;1847.45;;;999.90;;
68995;SDS011;56056;48.990;12.146;2023-04-24T08:25:05;1898.80;;;999.90;;
68995;SDS011;56056;48.990;12.146;2023-04-24T08:27:32;1982.32;;;999.90;;
68995;SDS011;56056;48.990;12.146;2023-04-24T08:29:59;1842.13;;;999.90;;
68995;SDS011;56056;48.990;12.146;2023-04-24T08:32:25;1999.90;;;999.90;;
68995;SDS011;56056;48.990;12.146;2023-04-24T08:34:52;1754.72;;;999.90;;
68995;SDS011;56056;48.990;12.146;2023-04-24T08:37:18;1332.35;;;999.90;;
68995;SDS011;56056;48.990;12.146;2023-04-24T08:39:44;1999.90;;;999.90;;
68995;SDS011;56056;48.990;12.146;2023-04-24T08:42:09;1615.15;;;999.90;;
68995;SDS011;56056;48.990;12.146;2023-04-24T08:44:36;1418.18;;;999.90;;
68995;SDS011;56056;48.990;12.146;2023-04-24T08:47:03;1814.45;;;999.90;;
68995;SDS011;56056;48.990;12.146;2023-04-24T08:49:30;1999.90;;;999.90;;
68995;SDS011;56056;48.990;12.146;2023-04-24T08:51:56;1999.90;;;999.90;;
68995;SDS011;56056;48.990;12.146;2023-04-24T08:54:22;1984.45;;;999.90;;
68995;SDS011;56056;48.990;12.146;2023-04-24T08:56:48;1632.53;;;999.90;;
68995;SDS011;56056;48.990;12.146;2023-04-24T08:59:14;1850.90;;;999.90;;
68995;SDS011;56056;48.990;12.146;2023-04-24T09:01:40;1785.15;;;999.90;;
68995;SDS011;56056;48.990;12.146;2023-04-24T09:04:08;1808.20;;;999.90;;
68995;SDS011;56056;48.990;12.146;2023-04-24T09:06:39;1999.90;;;999.90;;
68995;SDS011;56056;48.990;12.146;2023-04-24T09:09:04;1730.63;;;999.90;;
68995;SDS011;56056;48.990;12.146;2023-04-24T09:11:30;1659.57;;;999.90;;
68995;SDS011;56056;48.990;12.146;2023-04-24T09:13:57;1785.28;;;999.90;;
68995;SDS011;56056;48.990;12.146;2023-04-24T09:16:23;1946.95;;;999.90;;
68995;SDS011;56056;48.990;12.146;2023-04-24T09:18:50;1891.03;;;999.90;;
68995;SDS011;56056;48.990;12.146;2023-04-24T09:21:17;1999.90;;;999.90;;
68995;SDS011;56056;48.990;12.146;2023-04-24T09:23:45;1999.90;;;999.90;;
68995;SDS011;56056;48.990;12.146;2023-04-24T09:26:11;1999.90;;;999.90;;
68995;SDS011;56056;48.990;12.146;2023-04-24T09:28:41;1999.90;;;999.90;;
68995;SDS011;56056;48.990;12.146;2023-04-24T09:31:08;1999.90;;;999.90;;
68995;SDS011;56056;48.990;12.146;2023-04-24T09:33:35;1999.90;;;999.90;;
68995;SDS011;56056;48.990;12.146;2023-04-24T09:36:01;1999.90;;;999.90;;
68995;SDS011;56056;48.990;12.146;2023-04-24T09:38:31;1999.90;;;999.90;;
68995;SDS011;56056;48.990;12.146;2023-04-24T09:40:59;1556.88;;;999.90;;
68995;SDS011;56056;48.990;12.146;2023-04-24T09:43:26;1902.63;;;999.90;;
68995;SDS011;56056;48.990;12.146;2023-04-24T09:45:53;1824.90;;;999.90;;
68995;SDS011;56056;48.990;12.146;2023-04-24T09:48:29;1820.35;;;999.90;;
68995;SDS011;56056;48.990;12.146;2023-04-24T09:50:55;1569.78;;;999.90;;
68995;SDS011;56056;48.990;12.146;2023-04-24T09:53:23;1674.13;;;999.90;;
68995;SDS011;56056;48.990;12.146;2023-04-24T09:55:50;1338.82;;;999.90;;
68995;SDS011;56056;48.990;12.146;2023-04-24T09:58:18;1541.35;;;999.90;;
68995;SDS011;56056;48.990;12.146;2023-04-24T10:00:43;1267.50;;;999.90;;
68995;SDS011;56056;48.990;12.146;2023-04-24T10:03:11;1355.55;;;999.90;;
68995;SDS011;56056;48.990;12.146;2023-04-24T10:05:37;1314.53;;;999.90;;
68995;SDS011;56056;48.990;12.146;2023-04-24T10:08:04;1330.28;;;999.90;;
68995;SDS011;56056;48.990;12.146;2023-04-24T10:10:30;1184.25;;;999.90;;
68995;SDS011;56056;48.990;12.146;2023-04-24T10:12:58;1505.07;;;999.90;;
68995;SDS011;56056;48.990;12.146;2023-04-24T10:15:24;1229.78;;;999.90;;
68995;SDS011;56056;48.990;12.146;2023-04-24T10:17:51;1237.63;;;999.90;;
68995;SDS011;56056;48.990;12.146;2023-04-24T10:20:18;1162.20;;;999.90;;
68995;SDS011;56056;48.990;12.146;2023-04-24T10:22:48;1481.50;;;999.90;;
68995;SDS011;56056;48.990;12.146;2023-04-24T10:25:16;1496.32;;;999.90;;
68995;SDS011;56056;48.990;12.146;2023-04-24T10:27:42;1320.20;;;999.90;;
68995;SDS011;56056;48.990;12.146;2023-04-24T10:30:10;1531.55;;;999.90;;
68995;SDS011;56056;48.990;12.146;2023-04-24T10:32:37;1498.40;;;999.90;;
68995;SDS011;56056;48.990;12.146;2023-04-24T10:35:03;1247.38;;;999.90;;
68995;SDS011;56056;48.990;12.146;2023-04-24T10:37:33;1572.35;;;999.90;;
68995;SDS011;56056;48.990;12.146;2023-04-24T10:40:01;1609.63;;;999.90;;
68995;SDS011;56056;48.990;12.146;2023-04-24T10:42:26;1687.55;;;999.90;;
68995;SDS011;56056;48.990;12.146;2023-04-24T10:44:52;1784.50;;;999.90;;
68995;SDS011;56056;48.990;12.146;2023-04-24T10:47:20;1416.28;;;999.90;;
68995;SDS011;56056;48.990;12.146;2023-04-24T10:49:46;1339.03;;;999.90;;
68995;SDS011;56056;48.990;12.146;2023-04-24T10:52:11;1574.00;;;999.90;;
68995;SDS011;56056;48.990;12.146;2023-04-24T10:54:41;1601.13;;;999.90;;
68995;SDS011;56056;48.990;12.146;2023-04-24T10:57:26;1330.60;;;999.90;;
68995;SDS011;56056;48.990;12.146;2023-04-24T11:00:15;1495.10;;;999.90;;
68995;SDS011;56056;48.990;12.146;2023-04-24T11:02:45;1783.47;;;999.90;;
68995;SDS011;56056;48.990;12.146;2023-04-24T11:05:17;1697.43;;;999.90;;
68995;SDS011;56056;48.990;12.146;2023-04-24T11:10:39;1367.88;;;999.90;;
68995;SDS011;56056;48.990;12.146;2023-04-24T11:13:05;1305.35;;;999.90;;
68995;SDS011;56056;48.990;12.146;2023-04-24T11:15:31;1497.40;;;999.90;;
68995;SDS011;56056;48.990;12.146;2023-04-24T11:17:58;1599.00;;;999.90;;
68995;SDS011;56056;48.990;12.146;2023-04-24T11:20:24;1448.93;;;999.90;;
68995;SDS011;56056;48.990;12.146;2023-04-24T11:22:52;1250.78;;;999.90;;
68995;SDS011;56056;48.990;12.146;2023-04-24T11:25:19;1528.15;;;999.90;;
68995;SDS011;56056;48.990;12.146;2023-04-24T11:27:44;1251.00;;;999.90;;
68995;SDS011;56056;48.990;12.146;2023-04-24T11:30:11;1374.38;;;999.90;;
68995;SDS011;56056;48.990;12.146;2023-04-24T11:32:38;1999.90;;;999.90;;
68995;SDS011;56056;48.990;12.146;2023-04-24T11:35:07;1695.32;;;999.90;;
68995;SDS011;56056;48.990;12.146;2023-04-24T11:37:34;1140.90;;;999.90;;
68995;SDS011;56056;48.990;12.146;2023-04-24T11:40:01;1303.32;;;998.25;;
68995;SDS011;56056;48.990;12.146;2023-04-24T11:42:28;1999.90;;;999.90;;
68995;SDS011;56056;48.990;12.146;2023-04-24T11:44:59;1775.03;;;999.90;;
68995;SDS011;56056;48.990;12.146;2023-04-24T11:47:29;1971.03;;;999.90;;
68995;SDS011;56056;48.990;12.146;2023-04-24T11:49:55;1746.20;;;999.90;;
68995;SDS011;56056;48.990;12.146;2023-04-24T11:52:22;1672.10;;;999.90;;
68995;SDS011;56056;48.990;12.146;2023-04-24T11:54:48;1721.85;;;999.90;;
68995;SDS011;56056;48.990;12.146;2023-04-24T11:57:15;1999.90;;;999.90;;
68995;SDS011;56056;48.990;12.146;2023-04-24T11:59:41;1502.18;;;999.90;;
68995;SDS011;56056;48.990;12.146;2023-04-24T12:02:06;1292.43;;;999.90;;
68995;SDS011;56056;48.990;12.146;2023-04-24T12:04:38;1909.45;;;999.90;;
68995;SDS011;56056;48.990;12.146;2023-04-24T12:07:05;1497.47;;;999.90;;
68995;SDS011;56056;48.990;12.146;2023-04-24T12:09:41;1485.97;;;999.90;;
68995;SDS011;56056;48.990;12.146;2023-04-24T12:12:07;1724.47;;;999.90;;
68995;SDS011;56056;48.990;12.146;2023-04-24T12:14:41;1734.68;;;999.90;;
68995;SDS011;56056;48.990;12.146;2023-04-24T12:17:07;1776.53;;;999.90;;
68995;SDS011;56056;48.990;12.146;2023-04-24T12:19:33;1999.90;;;999.90;;
68995;SDS011;56056;48.990;12.146;2023-04-24T12:21:59;1863.63;;;999.90;;
68995;SDS011;56056;48.990;12.146;2023-04-24T12:24:25;1789.28;;;999.90;;
68995;SDS011;56056;48.990;12.146;2023-04-24T12:26:52;1883.00;;;999.90;;
68995;SDS011;56056;48.990;12.146;2023-04-24T12:29:19;1787.47;;;999.90;;
68995;SDS011;56056;48.990;12.146;2023-04-24T12:31:45;1703.45;;;999.90;;
68995;SDS011;56056;48.990;12.146;2023-04-24T12:34:17;1533.55;;;999.90;;
68995;SDS011;56056;48.990;12.146;2023-04-24T12:36:43;1446.32;;;999.90;;
68995;SDS011;56056;48.990;12.146;2023-04-24T12:39:14;1483.18;;;999.90;;
68995;SDS011;56056;48.990;12.146;2023-04-24T12:41:48;1421.18;;;999.90;;
68995;SDS011;56056;48.990;12.146;2023-04-24T12:44:28;1488.55;;;999.90;;
68995;SDS011;56056;48.990;12.146;2023-04-24T12:46:54;1808.15;;;999.90;;
68995;SDS011;56056;48.990;12.146;2023-04-24T12:49:20;1736.65;;;999.90;;
68995;SDS011;56056;48.990;12.146;2023-04-24T12:51:45;1589.60;;;999.90;;
68995;SDS011;56056;48.990;12.146;2023-04-24T12:54:11;1394.85;;;999.90;;
68995;SDS011;56056;48.990;12.146;2023-04-24T12:56:37;1492.97;;;999.90;;
68995;SDS011;56056;48.990;12.146;2023-04-24T12:59:05;1438.10;;;999.90;;
68995;SDS011;56056;48.990;12.146;2023-04-24T13:01:31;1546.40;;;999.90;;
68995;SDS011;56056;48.990;12.146;2023-04-24T13:03:56;1619.05;;;999.90;;
68995;SDS011;56056;48.990;12.146;2023-04-24T13:06:22;1435.68;;;999.90;;
68995;SDS011;56056;48.990;12.146;2023-04-24T13:08:48;1444.45;;;999.90;;
68995;SDS011;56056;48.990;12.146;2023-04-24T13:11:13;1489.28;;;999.90;;
68995;SDS011;56056;48.990;12.146;2023-04-24T13:13:39;1472.60;;;999.90;;
68995;SDS011;56056;48.990;12.146;2023-04-24T13:16:06;1516.53;;;999.90;;
68995;SDS011;56056;48.990;12.146;2023-04-24T13:18:32;1442.90;;;999.90;;
68995;SDS011;56056;48.990;12.146;2023-04-24T13:20:57;1999.90;;;999.90;;
68995;SDS011;56056;48.990;12.146;2023-04-24T13:23:23;1166.43;;;998.67;;
68995;SDS011;56056;48.990;12.146;2023-04-24T13:25:49;1476.13;;;999.90;;
68995;SDS011;56056;48.990;12.146;2023-04-24T13:28:14;1017.72;;;912.72;;
68995;SDS011;56056;48.990;12.146;2023-04-24T13:30:40;1551.03;;;999.90;;
68995;SDS011;56056;48.990;12.146;2023-04-24T13:33:07;1789.25;;;999.90;;